sensor_id;sensor_type;location;lat;lon;timestamp;P1;durP1;ratioP1;P2;durP2;ratioP2
23682;SDS011;24897;53.514;10.482;2023-01-23T00:00:12;86.90;;;79.70;;
23682;SDS011;24897;53.514;10.482;2023-01-23T00:02:58;88.23;;;81.20;;
23682;SDS011;24897;53.514;10.482;2023-01-23T00:05:43;88.43;;;81.20;;
23682;SDS011;24897;53.514;10.482;2023-01-23T00:08:27;88.33;;;81.30;;
23682;SDS011;24897;53.514;10.482;2023-01-23T00:11:14;90.73;;;83.33;;
23682;SDS011;24897;53.514;10.482;2023-01-23T00:14:00;88.93;;;81.73;;
23682;SDS011;24897;53.514;10.482;2023-01-23T00:16:45;88.83;;;81.57;;
23682;SDS011;24897;53.514;10.482;2023-01-23T00:19:29;86.73;;;79.70;;
23682;SDS011;24897;53.514;10.482;2023-01-23T00:22:13;87.90;;;80.97;;
23682;SDS011;24897;53.514;10.482;2023-01-23T00:24:58;88.47;;;81.37;;
23682;SDS011;24897;53.514;10.482;2023-01-23T00:27:42;88.37;;;81.37;;
23682;SDS011;24897;53.514;10.482;2023-01-23T00:30:26;88.60;;;81.43;;
23682;SDS011;24897;53.514;10.482;2023-01-23T00:33:10;88.73;;;81.63;;
23682;SDS011;24897;53.514;10.482;2023-01-23T00:35:54;87.80;;;80.70;;
23682;SDS011;24897;53.514;10.482;2023-01-23T00:38:39;87.87;;;80.87;;
23682;SDS011;24897;53.514;10.482;2023-01-23T00:41:24;88.83;;;81.47;;
23682;SDS011;24897;53.514;10.482;2023-01-23T00:44:08;90.07;;;82.83;;
23682;SDS011;24897;53.514;10.482;2023-01-23T00:46:52;89.13;;;81.93;;
23682;SDS011;24897;53.514;10.482;2023-01-23T00:49:36;88.00;;;81.00;;
23682;SDS011;24897;53.514;10.482;2023-01-23T00:52:20;91.77;;;84.47;;
23682;SDS011;24897;53.514;10.482;2023-01-23T00:55:05;92.73;;;85.23;;
23682;SDS011;24897;53.514;10.482;2023-01-23T00:57:50;91.83;;;84.37;;
23682;SDS011;24897;53.514;10.482;2023-01-23T01:00:34;91.00;;;83.63;;
23682;SDS011;24897;53.514;10.482;2023-01-23T01:03:20;90.23;;;82.90;;
23682;SDS011;24897;53.514;10.482;2023-01-23T01:06:04;94.00;;;86.50;;
23682;SDS011;24897;53.514;10.482;2023-01-23T01:08:48;92.93;;;85.27;;
23682;SDS011;24897;53.514;10.482;2023-01-23T01:11:33;91.83;;;84.43;;
23682;SDS011;24897;53.514;10.482;2023-01-23T01:14:17;93.20;;;85.67;;
23682;SDS011;24897;53.514;10.482;2023-01-23T01:17:01;91.93;;;84.53;;
23682;SDS011;24897;53.514;10.482;2023-01-23T01:19:46;91.90;;;84.50;;
23682;SDS011;24897;53.514;10.482;2023-01-23T01:22:30;93.50;;;86.03;;
23682;SDS011;24897;53.514;10.482;2023-01-23T01:25:15;92.40;;;84.87;;
23682;SDS011;24897;53.514;10.482;2023-01-23T01:27:59;93.73;;;86.00;;
23682;SDS011;24897;53.514;10.482;2023-01-23T01:30:44;95.20;;;87.40;;
23682;SDS011;24897;53.514;10.482;2023-01-23T01:33:28;93.43;;;85.90;;
23682;SDS011;24897;53.514;10.482;2023-01-23T01:36:14;94.77;;;87.30;;
23682;SDS011;24897;53.514;10.482;2023-01-23T01:39:00;94.47;;;86.87;;
23682;SDS011;24897;53.514;10.482;2023-01-23T01:41:45;93.77;;;86.27;;
23682;SDS011;24897;53.514;10.482;2023-01-23T01:44:53;92.73;;;85.23;;
23682;SDS011;24897;53.514;10.482;2023-01-23T01:47:36;93.27;;;85.57;;
23682;SDS011;24897;53.514;10.482;2023-01-23T01:50:20;92.23;;;84.83;;
23682;SDS011;24897;53.514;10.482;2023-01-23T01:53:05;94.03;;;86.33;;
23682;SDS011;24897;53.514;10.482;2023-01-23T01:55:50;93.83;;;86.33;;
23682;SDS011;24897;53.514;10.482;2023-01-23T01:58:35;91.80;;;84.27;;
23682;SDS011;24897;53.514;10.482;2023-01-23T02:01:20;92.20;;;84.70;;
23682;SDS011;24897;53.514;10.482;2023-01-23T02:04:05;88.67;;;81.43;;
23682;SDS011;24897;53.514;10.482;2023-01-23T02:06:51;84.93;;;77.97;;
23682;SDS011;24897;53.514;10.482;2023-01-23T02:09:36;78.53;;;72.10;;
23682;SDS011;24897;53.514;10.482;2023-01-23T02:12:21;78.87;;;72.43;;
23682;SDS011;24897;53.514;10.482;2023-01-23T02:15:05;78.20;;;71.70;;
23682;SDS011;24897;53.514;10.482;2023-01-23T02:17:50;78.13;;;71.67;;
23682;SDS011;24897;53.514;10.482;2023-01-23T02:20:37;75.43;;;69.23;;
23682;SDS011;24897;53.514;10.482;2023-01-23T02:23:29;71.57;;;65.27;;
23682;SDS011;24897;53.514;10.482;2023-01-23T02:26:21;64.40;;;58.90;;
23682;SDS011;24897;53.514;10.482;2023-01-23T02:29:11;47.13;;;42.40;;
23682;SDS011;24897;53.514;10.482;2023-01-23T02:31:57;46.97;;;42.27;;
23682;SDS011;24897;53.514;10.482;2023-01-23T02:34:42;45.73;;;41.23;;
23682;SDS011;24897;53.514;10.482;2023-01-23T02:37:26;45.33;;;40.83;;
23682;SDS011;24897;53.514;10.482;2023-01-23T02:40:14;43.50;;;39.10;;
23682;SDS011;24897;53.514;10.482;2023-01-23T02:42:58;37.53;;;32.73;;
23682;SDS011;24897;53.514;10.482;2023-01-23T02:45:43;36.80;;;32.80;;
23682;SDS011;24897;53.514;10.482;2023-01-23T02:48:28;36.63;;;32.70;;
23682;SDS011;24897;53.514;10.482;2023-01-23T02:51:12;38.53;;;33.00;;
23682;SDS011;24897;53.514;10.482;2023-01-23T02:53:56;35.67;;;31.77;;
23682;SDS011;24897;53.514;10.482;2023-01-23T02:56:42;36.80;;;32.77;;
23682;SDS011;24897;53.514;10.482;2023-01-23T02:59:26;36.40;;;32.40;;
23682;SDS011;24897;53.514;10.482;2023-01-23T03:02:30;36.63;;;32.60;;
23682;SDS011;24897;53.514;10.482;2023-01-23T03:05:14;36.30;;;31.87;;
23682;SDS011;24897;53.514;10.482;2023-01-23T03:07:59;37.13;;;32.97;;
23682;SDS011;24897;53.514;10.482;2023-01-23T03:10:43;39.30;;;32.37;;
23682;SDS011;24897;53.514;10.482;2023-01-23T03:13:28;36.40;;;32.40;;
23682;SDS011;24897;53.514;10.482;2023-01-23T03:16:12;37.20;;;32.97;;
23682;SDS011;24897;53.514;10.482;2023-01-23T03:18:57;36.93;;;32.60;;
23682;SDS011;24897;53.514;10.482;2023-01-23T03:21:44;35.50;;;31.60;;
23682;SDS011;24897;53.514;10.482;2023-01-23T03:24:29;35.73;;;31.00;;
23682;SDS011;24897;53.514;10.482;2023-01-23T03:27:13;36.13;;;32.03;;
23682;SDS011;24897;53.514;10.482;2023-01-23T03:29:57;36.50;;;32.03;;
23682;SDS011;24897;53.514;10.482;2023-01-23T03:32:56;37.60;;;31.67;;
23682;SDS011;24897;53.514;10.482;2023-01-23T03:35:40;36.90;;;32.90;;
23682;SDS011;24897;53.514;10.482;2023-01-23T03:38:24;36.87;;;32.00;;
23682;SDS011;24897;53.514;10.482;2023-01-23T03:41:09;38.90;;;32.40;;
23682;SDS011;24897;53.514;10.482;2023-01-23T03:44:08;36.77;;;31.33;;
23682;SDS011;24897;53.514;10.482;2023-01-23T03:46:53;35.73;;;31.47;;
23682;SDS011;24897;53.514;10.482;2023-01-23T03:49:37;38.10;;;30.67;;
23682;SDS011;24897;53.514;10.482;2023-01-23T03:52:21;37.37;;;32.73;;
23682;SDS011;24897;53.514;10.482;2023-01-23T03:55:06;39.47;;;32.90;;
23682;SDS011;24897;53.514;10.482;2023-01-23T03:57:50;36.57;;;32.10;;
23682;SDS011;24897;53.514;10.482;2023-01-23T04:00:35;37.67;;;32.10;;
23682;SDS011;24897;53.514;10.482;2023-01-23T04:03:19;36.13;;;31.13;;
23682;SDS011;24897;53.514;10.482;2023-01-23T04:06:03;35.83;;;31.33;;
23682;SDS011;24897;53.514;10.482;2023-01-23T04:08:48;35.10;;;31.30;;
23682;SDS011;24897;53.514;10.482;2023-01-23T04:11:32;35.83;;;31.87;;
23682;SDS011;24897;53.514;10.482;2023-01-23T04:14:16;37.13;;;31.17;;
23682;SDS011;24897;53.514;10.482;2023-01-23T04:17:00;36.27;;;31.80;;
23682;SDS011;24897;53.514;10.482;2023-01-23T04:19:44;38.00;;;32.20;;
23682;SDS011;24897;53.514;10.482;2023-01-23T04:22:28;36.90;;;32.50;;
23682;SDS011;24897;53.514;10.482;2023-01-23T04:25:12;38.07;;;32.37;;
23682;SDS011;24897;53.514;10.482;2023-01-23T04:27:56;41.47;;;33.27;;
23682;SDS011;24897;53.514;10.482;2023-01-23T04:30:40;38.63;;;34.30;;
23682;SDS011;24897;53.514;10.482;2023-01-23T04:33:25;38.43;;;33.63;;
23682;SDS011;24897;53.514;10.482;2023-01-23T04:36:09;40.80;;;32.80;;
23682;SDS011;24897;53.514;10.482;2023-01-23T04:38:53;38.30;;;33.93;;
23682;SDS011;24897;53.514;10.482;2023-01-23T04:41:38;41.77;;;34.60;;
23682;SDS011;24897;53.514;10.482;2023-01-23T04:44:22;38.47;;;32.00;;
23682;SDS011;24897;53.514;10.482;2023-01-23T04:47:07;38.87;;;33.17;;
23682;SDS011;24897;53.514;10.482;2023-01-23T04:49:51;38.73;;;34.50;;
23682;SDS011;24897;53.514;10.482;2023-01-23T04:52:35;38.80;;;33.10;;
23682;SDS011;24897;53.514;10.482;2023-01-23T04:55:20;39.90;;;33.87;;
23682;SDS011;24897;53.514;10.482;2023-01-23T04:58:04;41.23;;;34.53;;
23682;SDS011;24897;53.514;10.482;2023-01-23T05:00:48;39.93;;;33.17;;
23682;SDS011;24897;53.514;10.482;2023-01-23T05:03:33;38.57;;;32.27;;
23682;SDS011;24897;53.514;10.482;2023-01-23T05:06:18;37.43;;;31.13;;
23682;SDS011;24897;53.514;10.482;2023-01-23T05:09:02;40.50;;;32.23;;
23682;SDS011;24897;53.514;10.482;2023-01-23T05:11:47;40.17;;;32.50;;
23682;SDS011;24897;53.514;10.482;2023-01-23T05:14:31;37.93;;;31.60;;
23682;SDS011;24897;53.514;10.482;2023-01-23T05:17:15;38.43;;;32.07;;
23682;SDS011;24897;53.514;10.482;2023-01-23T05:19:59;38.60;;;33.03;;
23682;SDS011;24897;53.514;10.482;2023-01-23T05:22:44;37.87;;;32.60;;
23682;SDS011;24897;53.514;10.482;2023-01-23T05:25:38;41.23;;;34.07;;
23682;SDS011;24897;53.514;10.482;2023-01-23T05:28:21;37.97;;;31.63;;
23682;SDS011;24897;53.514;10.482;2023-01-23T05:31:06;39.00;;;33.17;;
23682;SDS011;24897;53.514;10.482;2023-01-23T05:33:50;37.57;;;32.20;;
23682;SDS011;24897;53.514;10.482;2023-01-23T05:36:34;39.70;;;33.57;;
23682;SDS011;24897;53.514;10.482;2023-01-23T05:39:18;37.83;;;33.03;;
23682;SDS011;24897;53.514;10.482;2023-01-23T05:42:02;39.00;;;33.00;;
23682;SDS011;24897;53.514;10.482;2023-01-23T05:44:46;36.87;;;31.77;;
23682;SDS011;24897;53.514;10.482;2023-01-23T05:47:30;38.73;;;32.37;;
23682;SDS011;24897;53.514;10.482;2023-01-23T05:50:15;39.87;;;32.30;;
23682;SDS011;24897;53.514;10.482;2023-01-23T05:53:01;40.63;;;32.37;;
23682;SDS011;24897;53.514;10.482;2023-01-23T05:55:45;42.77;;;35.20;;
23682;SDS011;24897;53.514;10.482;2023-01-23T05:58:29;40.43;;;34.60;;
23682;SDS011;24897;53.514;10.482;2023-01-23T06:01:13;40.20;;;33.00;;
23682;SDS011;24897;53.514;10.482;2023-01-23T06:03:57;40.93;;;32.60;;
23682;SDS011;24897;53.514;10.482;2023-01-23T06:06:42;41.23;;;35.53;;
23682;SDS011;24897;53.514;10.482;2023-01-23T06:09:26;39.10;;;33.07;;
23682;SDS011;24897;53.514;10.482;2023-01-23T06:12:10;41.87;;;34.30;;
23682;SDS011;24897;53.514;10.482;2023-01-23T06:14:55;40.27;;;33.73;;
23682;SDS011;24897;53.514;10.482;2023-01-23T06:17:39;42.53;;;34.53;;
23682;SDS011;24897;53.514;10.482;2023-01-23T06:20:23;43.30;;;34.60;;
23682;SDS011;24897;53.514;10.482;2023-01-23T06:23:07;40.60;;;33.80;;
23682;SDS011;24897;53.514;10.482;2023-01-23T06:25:51;40.67;;;33.90;;
23682;SDS011;24897;53.514;10.482;2023-01-23T06:28:36;41.50;;;33.43;;
23682;SDS011;24897;53.514;10.482;2023-01-23T06:31:20;42.40;;;33.93;;
23682;SDS011;24897;53.514;10.482;2023-01-23T06:34:05;40.93;;;33.20;;
23682;SDS011;24897;53.514;10.482;2023-01-23T06:36:49;41.03;;;33.27;;
23682;SDS011;24897;53.514;10.482;2023-01-23T06:39:33;43.23;;;35.10;;
23682;SDS011;24897;53.514;10.482;2023-01-23T06:42:18;42.97;;;34.83;;
23682;SDS011;24897;53.514;10.482;2023-01-23T06:45:02;43.73;;;34.53;;
23682;SDS011;24897;53.514;10.482;2023-01-23T06:47:47;46.50;;;35.50;;
23682;SDS011;24897;53.514;10.482;2023-01-23T06:50:31;45.03;;;37.60;;
23682;SDS011;24897;53.514;10.482;2023-01-23T06:53:16;47.27;;;38.53;;
23682;SDS011;24897;53.514;10.482;2023-01-23T06:56:01;42.67;;;34.60;;
23682;SDS011;24897;53.514;10.482;2023-01-23T06:58:47;46.27;;;38.17;;
23682;SDS011;24897;53.514;10.482;2023-01-23T07:01:32;44.97;;;36.13;;
23682;SDS011;24897;53.514;10.482;2023-01-23T07:04:16;43.50;;;36.67;;
23682;SDS011;24897;53.514;10.482;2023-01-23T07:07:00;46.53;;;37.53;;
23682;SDS011;24897;53.514;10.482;2023-01-23T07:09:44;45.57;;;36.97;;
23682;SDS011;24897;53.514;10.482;2023-01-23T07:12:28;43.03;;;36.90;;
23682;SDS011;24897;53.514;10.482;2023-01-23T07:15:13;44.53;;;37.03;;
23682;SDS011;24897;53.514;10.482;2023-01-23T07:17:57;47.93;;;37.47;;
23682;SDS011;24897;53.514;10.482;2023-01-23T07:20:45;48.00;;;39.57;;
23682;SDS011;24897;53.514;10.482;2023-01-23T07:23:30;44.40;;;37.80;;
23682;SDS011;24897;53.514;10.482;2023-01-23T07:26:15;46.33;;;39.03;;
23682;SDS011;24897;53.514;10.482;2023-01-23T07:28:59;47.17;;;38.30;;
23682;SDS011;24897;53.514;10.482;2023-01-23T07:31:43;48.30;;;37.63;;
23682;SDS011;24897;53.514;10.482;2023-01-23T07:34:27;49.13;;;38.33;;
23682;SDS011;24897;53.514;10.482;2023-01-23T07:37:11;47.70;;;39.60;;
23682;SDS011;24897;53.514;10.482;2023-01-23T07:39:55;47.13;;;38.77;;
23682;SDS011;24897;53.514;10.482;2023-01-23T07:42:39;46.00;;;37.63;;
23682;SDS011;24897;53.514;10.482;2023-01-23T07:45:24;47.73;;;37.37;;
23682;SDS011;24897;53.514;10.482;2023-01-23T07:48:09;47.90;;;37.70;;
23682;SDS011;24897;53.514;10.482;2023-01-23T07:50:53;51.07;;;39.40;;
23682;SDS011;24897;53.514;10.482;2023-01-23T07:53:37;47.07;;;39.23;;
23682;SDS011;24897;53.514;10.482;2023-01-23T07:56:21;47.50;;;38.17;;
23682;SDS011;24897;53.514;10.482;2023-01-23T07:59:05;49.33;;;38.43;;
23682;SDS011;24897;53.514;10.482;2023-01-23T08:01:50;45.07;;;37.00;;
23682;SDS011;24897;53.514;10.482;2023-01-23T08:04:35;47.60;;;36.83;;
23682;SDS011;24897;53.514;10.482;2023-01-23T08:07:19;49.23;;;38.50;;
23682;SDS011;24897;53.514;10.482;2023-01-23T08:10:04;48.40;;;39.27;;
23682;SDS011;24897;53.514;10.482;2023-01-23T08:12:49;46.60;;;36.30;;
23682;SDS011;24897;53.514;10.482;2023-01-23T08:15:33;49.73;;;38.43;;
23682;SDS011;24897;53.514;10.482;2023-01-23T08:18:19;46.93;;;37.63;;
23682;SDS011;24897;53.514;10.482;2023-01-23T08:21:03;52.17;;;38.87;;
23682;SDS011;24897;53.514;10.482;2023-01-23T08:23:48;47.30;;;37.27;;
23682;SDS011;24897;53.514;10.482;2023-01-23T08:26:31;48.43;;;37.53;;
23682;SDS011;24897;53.514;10.482;2023-01-23T08:29:17;48.80;;;37.20;;
23682;SDS011;24897;53.514;10.482;2023-01-23T08:32:00;46.30;;;37.63;;
23682;SDS011;24897;53.514;10.482;2023-01-23T08:34:45;47.23;;;37.03;;
23682;SDS011;24897;53.514;10.482;2023-01-23T08:37:29;50.40;;;38.00;;
23682;SDS011;24897;53.514;10.482;2023-01-23T08:40:13;49.37;;;38.40;;
23682;SDS011;24897;53.514;10.482;2023-01-23T08:42:57;46.23;;;37.60;;
23682;SDS011;24897;53.514;10.482;2023-01-23T08:45:47;46.50;;;36.30;;
23682;SDS011;24897;53.514;10.482;2023-01-23T08:48:33;53.17;;;37.30;;
23682;SDS011;24897;53.514;10.482;2023-01-23T08:51:18;46.07;;;35.47;;
23682;SDS011;24897;53.514;10.482;2023-01-23T08:54:02;45.73;;;37.80;;
23682;SDS011;24897;53.514;10.482;2023-01-23T08:56:47;47.67;;;37.50;;
23682;SDS011;24897;53.514;10.482;2023-01-23T08:59:31;47.13;;;38.60;;
23682;SDS011;24897;53.514;10.482;2023-01-23T09:02:15;45.43;;;37.53;;
23682;SDS011;24897;53.514;10.482;2023-01-23T09:04:59;46.87;;;38.03;;
23682;SDS011;24897;53.514;10.482;2023-01-23T09:07:43;45.73;;;37.57;;
23682;SDS011;24897;53.514;10.482;2023-01-23T09:10:28;43.73;;;37.23;;
23682;SDS011;24897;53.514;10.482;2023-01-23T09:13:12;43.87;;;35.77;;
23682;SDS011;24897;53.514;10.482;2023-01-23T09:15:57;44.67;;;36.77;;
23682;SDS011;24897;53.514;10.482;2023-01-23T09:18:41;46.33;;;36.17;;
23682;SDS011;24897;53.514;10.482;2023-01-23T09:21:25;48.60;;;37.57;;
23682;SDS011;24897;53.514;10.482;2023-01-23T09:24:09;43.23;;;35.63;;
23682;SDS011;24897;53.514;10.482;2023-01-23T09:26:53;46.33;;;37.03;;
23682;SDS011;24897;53.514;10.482;2023-01-23T09:29:37;46.53;;;36.90;;
23682;SDS011;24897;53.514;10.482;2023-01-23T09:32:21;44.97;;;37.33;;
23682;SDS011;24897;53.514;10.482;2023-01-23T09:35:05;44.93;;;37.47;;
23682;SDS011;24897;53.514;10.482;2023-01-23T09:37:50;46.87;;;37.17;;
23682;SDS011;24897;53.514;10.482;2023-01-23T09:40:45;47.13;;;37.47;;
23682;SDS011;24897;53.514;10.482;2023-01-23T09:43:41;44.17;;;36.73;;
23682;SDS011;24897;53.514;10.482;2023-01-23T09:46:29;47.97;;;37.10;;
23682;SDS011;24897;53.514;10.482;2023-01-23T09:49:42;48.07;;;36.17;;
23682;SDS011;24897;53.514;10.482;2023-01-23T09:52:33;47.87;;;36.43;;
23682;SDS011;24897;53.514;10.482;2023-01-23T09:55:35;45.83;;;36.00;;
23682;SDS011;24897;53.514;10.482;2023-01-23T09:58:38;48.23;;;35.50;;
23682;SDS011;24897;53.514;10.482;2023-01-23T10:01:29;46.37;;;35.90;;
23682;SDS011;24897;53.514;10.482;2023-01-23T10:04:14;47.07;;;36.30;;
23682;SDS011;24897;53.514;10.482;2023-01-23T10:07:26;44.40;;;35.43;;
23682;SDS011;24897;53.514;10.482;2023-01-23T10:13:32;47.73;;;35.30;;
23682;SDS011;24897;53.514;10.482;2023-01-23T10:16:40;42.40;;;36.00;;
23682;SDS011;24897;53.514;10.482;2023-01-23T10:26:02;44.10;;;37.03;;
23682;SDS011;24897;53.514;10.482;2023-01-23T10:28:47;45.37;;;37.33;;
23682;SDS011;24897;53.514;10.482;2023-01-23T10:31:46;47.13;;;38.80;;
23682;SDS011;24897;53.514;10.482;2023-01-23T10:40:23;47.80;;;38.67;;
23682;SDS011;24897;53.514;10.482;2023-01-23T10:43:26;48.03;;;37.30;;
23682;SDS011;24897;53.514;10.482;2023-01-23T10:46:11;47.27;;;38.43;;
23682;SDS011;24897;53.514;10.482;2023-01-23T10:49:01;44.63;;;37.43;;
23682;SDS011;24897;53.514;10.482;2023-01-23T10:51:46;45.93;;;38.43;;
23682;SDS011;24897;53.514;10.482;2023-01-23T10:54:30;44.63;;;37.00;;
23682;SDS011;24897;53.514;10.482;2023-01-23T10:57:29;46.10;;;37.83;;
23682;SDS011;24897;53.514;10.482;2023-01-23T11:00:32;48.87;;;39.17;;
23682;SDS011;24897;53.514;10.482;2023-01-23T11:06:04;46.40;;;37.80;;
23682;SDS011;24897;53.514;10.482;2023-01-23T11:08:57;44.33;;;37.87;;
23682;SDS011;24897;53.514;10.482;2023-01-23T11:12:03;46.03;;;38.73;;
23682;SDS011;24897;53.514;10.482;2023-01-23T11:14:49;48.10;;;37.97;;
23682;SDS011;24897;53.514;10.482;2023-01-23T11:17:34;46.33;;;38.63;;
23682;SDS011;24897;53.514;10.482;2023-01-23T11:20:27;51.63;;;40.57;;
23682;SDS011;24897;53.514;10.482;2023-01-23T11:23:14;47.67;;;39.60;;
23682;SDS011;24897;53.514;10.482;2023-01-23T11:26:00;49.00;;;39.03;;
23682;SDS011;24897;53.514;10.482;2023-01-23T11:28:46;48.83;;;38.93;;
23682;SDS011;24897;53.514;10.482;2023-01-23T11:31:33;43.67;;;37.73;;
23682;SDS011;24897;53.514;10.482;2023-01-23T11:34:18;46.27;;;38.40;;
23682;SDS011;24897;53.514;10.482;2023-01-23T11:40:02;49.10;;;39.50;;
23682;SDS011;24897;53.514;10.482;2023-01-23T11:42:50;47.03;;;39.00;;
23682;SDS011;24897;53.514;10.482;2023-01-23T11:51:40;45.23;;;38.27;;
23682;SDS011;24897;53.514;10.482;2023-01-23T12:00:44;43.77;;;38.53;;
23682;SDS011;24897;53.514;10.482;2023-01-23T12:06:56;44.33;;;37.77;;
23682;SDS011;24897;53.514;10.482;2023-01-23T12:15:59;43.63;;;37.80;;
23682;SDS011;24897;53.514;10.482;2023-01-23T12:27:46;46.87;;;39.80;;
23682;SDS011;24897;53.514;10.482;2023-01-23T12:33:49;46.27;;;39.00;;
23682;SDS011;24897;53.514;10.482;2023-01-23T12:42:55;47.33;;;39.57;;
23682;SDS011;24897;53.514;10.482;2023-01-23T12:45:55;47.00;;;40.20;;
23682;SDS011;24897;53.514;10.482;2023-01-23T12:48:46;45.83;;;39.67;;
23682;SDS011;24897;53.514;10.482;2023-01-23T12:51:38;46.50;;;40.13;;
23682;SDS011;24897;53.514;10.482;2023-01-23T12:54:30;46.97;;;40.13;;
23682;SDS011;24897;53.514;10.482;2023-01-23T12:57:19;47.90;;;40.13;;
23682;SDS011;24897;53.514;10.482;2023-01-23T13:03:40;44.57;;;38.50;;
23682;SDS011;24897;53.514;10.482;2023-01-23T13:12:29;47.23;;;38.73;;
23682;SDS011;24897;53.514;10.482;2023-01-23T13:18:02;49.40;;;39.57;;
23682;SDS011;24897;53.514;10.482;2023-01-23T13:20:54;50.37;;;40.40;;
23682;SDS011;24897;53.514;10.482;2023-01-23T13:27:49;49.60;;;39.83;;
23682;SDS011;24897;53.514;10.482;2023-01-23T13:30:35;49.27;;;39.13;;
23682;SDS011;24897;53.514;10.482;2023-01-23T13:36:20;49.43;;;40.13;;
23682;SDS011;24897;53.514;10.482;2023-01-23T13:42:46;47.47;;;39.97;;
23682;SDS011;24897;53.514;10.482;2023-01-23T13:54:10;48.87;;;40.80;;
23682;SDS011;24897;53.514;10.482;2023-01-23T13:57:16;50.17;;;41.40;;
23682;SDS011;24897;53.514;10.482;2023-01-23T14:00:02;49.67;;;40.43;;
23682;SDS011;24897;53.514;10.482;2023-01-23T14:02:54;47.33;;;40.07;;
23682;SDS011;24897;53.514;10.482;2023-01-23T14:06:03;49.87;;;39.20;;
23682;SDS011;24897;53.514;10.482;2023-01-23T14:08:53;49.17;;;39.90;;
23682;SDS011;24897;53.514;10.482;2023-01-23T14:11:37;47.13;;;39.87;;
23682;SDS011;24897;53.514;10.482;2023-01-23T14:14:22;48.77;;;39.90;;
23682;SDS011;24897;53.514;10.482;2023-01-23T14:17:25;47.60;;;40.83;;
23682;SDS011;24897;53.514;10.482;2023-01-23T14:20:12;49.57;;;40.37;;
23682;SDS011;24897;53.514;10.482;2023-01-23T14:23:00;46.37;;;39.10;;
23682;SDS011;24897;53.514;10.482;2023-01-23T14:25:45;48.37;;;40.37;;
23682;SDS011;24897;53.514;10.482;2023-01-23T14:28:30;46.60;;;40.13;;
23682;SDS011;24897;53.514;10.482;2023-01-23T14:31:20;48.23;;;40.37;;
23682;SDS011;24897;53.514;10.482;2023-01-23T14:34:16;51.43;;;40.30;;
23682;SDS011;24897;53.514;10.482;2023-01-23T14:37:05;45.00;;;39.33;;
23682;SDS011;24897;53.514;10.482;2023-01-23T14:39:53;48.83;;;40.10;;
23682;SDS011;24897;53.514;10.482;2023-01-23T14:42:39;48.87;;;41.03;;
23682;SDS011;24897;53.514;10.482;2023-01-23T14:45:24;49.00;;;41.10;;
23682;SDS011;24897;53.514;10.482;2023-01-23T14:48:13;48.00;;;39.67;;
23682;SDS011;24897;53.514;10.482;2023-01-23T14:51:00;50.50;;;40.97;;
23682;SDS011;24897;53.514;10.482;2023-01-23T14:53:52;51.57;;;40.40;;
23682;SDS011;24897;53.514;10.482;2023-01-23T14:56:44;51.80;;;41.87;;
23682;SDS011;24897;53.514;10.482;2023-01-23T14:59:31;52.70;;;40.60;;
23682;SDS011;24897;53.514;10.482;2023-01-23T15:02:39;52.27;;;41.73;;
23682;SDS011;24897;53.514;10.482;2023-01-23T15:05:24;50.53;;;39.83;;
23682;SDS011;24897;53.514;10.482;2023-01-23T15:08:17;54.13;;;41.17;;
23682;SDS011;24897;53.514;10.482;2023-01-23T15:11:07;53.10;;;41.33;;
23682;SDS011;24897;53.514;10.482;2023-01-23T15:13:56;50.23;;;40.27;;
23682;SDS011;24897;53.514;10.482;2023-01-23T15:16:44;51.17;;;40.37;;
23682;SDS011;24897;53.514;10.482;2023-01-23T15:19:29;54.90;;;41.50;;
23682;SDS011;24897;53.514;10.482;2023-01-23T15:22:18;54.83;;;42.50;;
23682;SDS011;24897;53.514;10.482;2023-01-23T15:28:28;54.63;;;40.33;;
23682;SDS011;24897;53.514;10.482;2023-01-23T15:31:24;55.17;;;42.47;;
23682;SDS011;24897;53.514;10.482;2023-01-23T15:39:56;70.47;;;48.53;;
23682;SDS011;24897;53.514;10.482;2023-01-23T15:45:46;66.90;;;46.03;;
23682;SDS011;24897;53.514;10.482;2023-01-23T15:48:30;61.83;;;42.60;;
23682;SDS011;24897;53.514;10.482;2023-01-23T15:51:14;61.17;;;43.40;;
23682;SDS011;24897;53.514;10.482;2023-01-23T15:53:58;64.40;;;44.67;;
23682;SDS011;24897;53.514;10.482;2023-01-23T15:56:42;61.67;;;43.60;;
23682;SDS011;24897;53.514;10.482;2023-01-23T15:59:28;57.03;;;43.13;;
23682;SDS011;24897;53.514;10.482;2023-01-23T16:02:14;67.77;;;46.30;;
23682;SDS011;24897;53.514;10.482;2023-01-23T16:05:03;63.60;;;43.73;;
23682;SDS011;24897;53.514;10.482;2023-01-23T16:07:48;64.17;;;44.83;;
23682;SDS011;24897;53.514;10.482;2023-01-23T16:10:36;61.80;;;43.30;;
23682;SDS011;24897;53.514;10.482;2023-01-23T16:13:22;64.17;;;44.90;;
23682;SDS011;24897;53.514;10.482;2023-01-23T16:16:11;60.37;;;42.80;;
23682;SDS011;24897;53.514;10.482;2023-01-23T16:18:56;61.37;;;43.40;;
23682;SDS011;24897;53.514;10.482;2023-01-23T16:21:41;99.17;;;59.90;;
23682;SDS011;24897;53.514;10.482;2023-01-23T16:24:27;104.27;;;62.10;;
23682;SDS011;24897;53.514;10.482;2023-01-23T16:27:17;86.40;;;53.80;;
23682;SDS011;24897;53.514;10.482;2023-01-23T16:30:03;80.27;;;54.57;;
23682;SDS011;24897;53.514;10.482;2023-01-23T16:32:48;87.87;;;56.37;;
23682;SDS011;24897;53.514;10.482;2023-01-23T16:35:32;73.00;;;47.83;;
23682;SDS011;24897;53.514;10.482;2023-01-23T16:38:21;73.93;;;50.07;;
23682;SDS011;24897;53.514;10.482;2023-01-23T16:41:07;71.10;;;48.27;;
23682;SDS011;24897;53.514;10.482;2023-01-23T16:43:52;59.57;;;42.40;;
23682;SDS011;24897;53.514;10.482;2023-01-23T16:46:36;59.23;;;41.17;;
23682;SDS011;24897;53.514;10.482;2023-01-23T16:49:20;56.40;;;41.93;;
23682;SDS011;24897;53.514;10.482;2023-01-23T16:52:04;58.83;;;42.23;;
23682;SDS011;24897;53.514;10.482;2023-01-23T16:54:50;61.83;;;42.83;;
23682;SDS011;24897;53.514;10.482;2023-01-23T16:57:36;57.60;;;41.97;;
23682;SDS011;24897;53.514;10.482;2023-01-23T17:00:20;57.17;;;41.97;;
23682;SDS011;24897;53.514;10.482;2023-01-23T17:03:06;56.20;;;41.60;;
23682;SDS011;24897;53.514;10.482;2023-01-23T17:05:52;62.47;;;44.27;;
23682;SDS011;24897;53.514;10.482;2023-01-23T17:08:36;59.80;;;44.83;;
23682;SDS011;24897;53.514;10.482;2023-01-23T17:11:25;60.17;;;44.60;;
23682;SDS011;24897;53.514;10.482;2023-01-23T17:14:24;68.97;;;48.57;;
23682;SDS011;24897;53.514;10.482;2023-01-23T17:17:16;68.10;;;45.67;;
23682;SDS011;24897;53.514;10.482;2023-01-23T17:20:08;74.43;;;50.70;;
23682;SDS011;24897;53.514;10.482;2023-01-23T17:22:55;71.60;;;49.27;;
23682;SDS011;24897;53.514;10.482;2023-01-23T17:25:40;76.73;;;50.27;;
23682;SDS011;24897;53.514;10.482;2023-01-23T17:28:30;66.20;;;44.97;;
23682;SDS011;24897;53.514;10.482;2023-01-23T17:31:15;63.83;;;44.33;;
23682;SDS011;24897;53.514;10.482;2023-01-23T17:34:20;60.17;;;43.30;;
23682;SDS011;24897;53.514;10.482;2023-01-23T17:37:07;63.67;;;44.50;;
23682;SDS011;24897;53.514;10.482;2023-01-23T17:40:02;63.03;;;43.33;;
23682;SDS011;24897;53.514;10.482;2023-01-23T17:42:46;69.20;;;45.30;;
23682;SDS011;24897;53.514;10.482;2023-01-23T17:45:30;67.67;;;45.93;;